Time;durP1;ratioP1;P1;durP2;ratioP2;P2;SDS_P1;SDS_P2;PMS_P1;PMS_P2;Temp;Humidity;BMP_temperature;BMP_pressure;BME280_temperature;BME280_humidity;BME280_pressure;Samples;Min_cycle;Max_cycle;Signal;HPM_P1;HPM_P2
2022/06/29 00:00:20;;;;;;;8.13;2.20;;;;;;;18.32;93.30;98357.03;5063347;28;20031;-68
2022/06/29 00:02:46;;;;;;;3.60;2.25;;;;;;;18.29;95.73;98357.19;5046443;28;20040;-68
2022/06/29 00:05:13;;;;;;;3.13;1.85;;;;;;;18.30;97.18;98358.06;5044024;28;20321;-68
2022/06/29 00:07:40;;;;;;;3.22;1.85;;;;;;;18.23;97.86;98356.69;5043954;28;20021;-68
2022/06/29 00:10:07;;;;;;;6.32;2.28;;;;;;;18.15;99.51;98353.56;5042999;28;20032;-68
2022/06/29 00:12:32;;;;;;;4.10;2.40;;;;;;;18.11;99.94;98352.88;5044218;28;20025;-68
2022/06/29 00:15:02;;;;;;;11.98;2.33;;;;;;;18.06;98.28;98349.59;5063144;28;20047;-68
2022/06/29 00:17:28;;;;;;;4.90;2.60;;;;;;;18.09;98.72;98348.56;5046259;28;20025;-68
2022/06/29 00:19:53;;;;;;;2.33;1.85;;;;;;;18.06;99.93;98348.72;5044284;28;20056;-68
2022/06/29 00:22:19;;;;;;;3.38;2.20;;;;;;;18.01;100.00;98341.00;5043813;28;20124;-68
2022/06/29 00:24:44;;;;;;;5.32;2.30;;;;;;;18.02;100.00;98357.81;5043786;28;20053;-68
2022/06/29 00:27:10;;;;;;;3.50;2.20;;;;;;;17.97;98.92;98349.22;5043967;28;20021;-68
2022/06/29 00:29:37;;;;;;;5.00;2.35;;;;;;;18.04;98.45;98345.28;5043821;28;20247;-68
2022/06/29 00:32:02;;;;;;;2.97;1.90;;;;;;;17.99;97.92;98336.69;5062007;28;20040;-68
2022/06/29 00:34:28;;;;;;;9.63;2.13;;;;;;;17.94;96.81;98341.41;5063123;28;20025;-68
2022/06/29 00:36:53;;;;;;;2.80;2.00;;;;;;;17.93;97.23;98342.31;5063083;28;20025;-68
2022/06/29 00:39:19;;;;;;;5.80;1.95;;;;;;;17.89;97.48;98346.09;5061540;28;20190;-68
2022/06/29 00:41:46;;;;;;;4.22;2.10;;;;;;;17.86;98.48;98351.59;5062995;28;20045;-68
2022/06/29 00:44:17;;;;;;;4.82;2.10;;;;;;;17.83;99.12;98352.63;5062538;28;20260;-68
2022/06/29 00:47:00;;;;;;;4.35;2.17;;;;;;;17.74;100.00;98352.22;5043619;28;20029;-68
2022/06/29 00:49:27;;;;;;;4.93;2.45;;;;;;;17.79;100.00;98344.88;5043641;28;20072;-68
2022/06/29 00:52:02;;;;;;;4.80;2.20;;;;;;;17.78;100.00;98348.50;5043630;28;20018;-68
2022/06/29 00:54:36;;;;;;;3.83;1.90;;;;;;;17.82;98.85;98344.72;5043853;28;20187;-68
2022/06/29 00:57:07;;;;;;;3.88;2.13;;;;;;;17.81;100.00;98348.31;5043537;28;20029;-68
2022/06/29 00:59:37;;;;;;;2.65;2.10;;;;;;;17.80;100.00;98341.25;5051182;28;20025;-68
2022/06/29 01:02:05;;;;;;;3.20;2.22;;;;;;;17.75;100.00;98338.00;5053398;28;20321;-68
2022/06/29 01:04:30;;;;;;;10.05;2.42;;;;;;;17.69;100.00;98339.19;5060030;28;20029;-68
2022/06/29 01:06:56;;;;;;;3.20;2.17;;;;;;;17.79;100.00;98334.22;5043449;28;20036;-68
2022/06/29 01:09:21;;;;;;;4.18;2.17;;;;;;;17.78;100.00;98337.84;5043484;28;20089;-68
2022/06/29 01:11:49;;;;;;;5.97;2.03;;;;;;;17.75;100.00;98338.00;5043394;28;20108;-68
2022/06/29 01:14:15;;;;;;;7.20;2.42;;;;;;;17.73;100.00;98334.53;5044480;28;20225;-68
2022/06/29 01:16:41;;;;;;;3.30;1.90;;;;;;;17.77;100.00;98334.31;5044475;28;20032;-68
2022/06/29 01:19:07;;;;;;;2.80;2.05;;;;;;;17.75;100.00;98330.00;5062759;28;20025;-68
2022/06/29 01:21:35;;;;;;;3.55;2.17;;;;;;;17.76;100.00;98326.41;5064061;28;20025;-68
2022/06/29 01:24:02;;;;;;;3.80;2.35;;;;;;;17.78;100.00;98327.19;5065111;28;20064;-68
2022/06/29 01:26:27;;;;;;;5.22;2.20;;;;;;;17.70;100.00;98334.69;5064746;28;20032;-68
2022/06/29 01:28:53;;;;;;;5.15;2.00;;;;;;;17.63;100.00;98327.97;5053476;28;20029;-68
2022/06/29 01:31:19;;;;;;;3.38;2.10;;;;;;;17.67;100.00;98321.56;5046731;28;20021;-68
2022/06/29 01:33:47;;;;;;;4.45;2.30;;;;;;;17.73;100.00;98326.56;5046737;28;20079;-68
2022/06/29 01:36:14;;;;;;;7.57;2.33;;;;;;;17.67;98.60;98325.09;5046685;28;20033;-68
2022/06/29 01:38:40;;;;;;;8.13;2.03;;;;;;;17.66;98.47;98325.16;5047723;28;20028;-68
2022/06/29 01:41:08;;;;;;;4.53;2.05;;;;;;;17.63;98.44;98317.34;5046761;28;20025;-68
2022/06/29 01:43:34;;;;;;;5.85;1.88;;;;;;;17.63;97.64;98317.34;5054922;28;20028;-68
2022/06/29 01:46:01;;;;;;;2.50;1.63;;;;;;;17.64;99.02;98313.72;5062122;28;20225;-68
2022/06/29 01:48:26;;;;;;;7.30;2.60;;;;;;;17.63;100.00;98317.34;5054536;28;20025;-68
2022/06/29 01:50:52;;;;;;;5.97;2.03;;;;;;;17.63;100.00;98306.69;5065863;28;20071;-68
2022/06/29 01:53:18;;;;;;;7.72;2.22;;;;;;;17.61;100.00;98303.25;5065440;28;20032;-68
2022/06/29 01:55:45;;;;;;;3.97;2.33;;;;;;;17.59;100.00;98300.66;5065700;28;20032;-68
2022/06/29 01:58:10;;;;;;;5.05;2.28;;;;;;;17.52;100.00;98303.75;5050612;28;20025;-68
2022/06/29 02:00:36;;;;;;;7.40;1.90;;;;;;;17.56;100.00;98305.31;5046123;28;20091;-68
2022/06/29 02:03:01;;;;;;;5.47;2.70;;;;;;;17.57;100.00;98294.56;5046171;28;20025;-68
2022/06/29 02:05:27;;;;;;;5.28;2.13;;;;;;;17.51;100.00;98294.03;5046060;28;20329;-68
2022/06/29 02:07:52;;;;;;;3.13;1.90;;;;;;;17.40;100.00;98283.91;5046033;28;20071;-68
2022/06/29 02:10:17;;;;;;;5.03;2.08;;;;;;;17.41;100.00;98295.41;5045999;28;20037;-68
2022/06/29 02:12:43;;;;;;;10.43;2.38;;;;;;;17.36;100.00;98286.78;5058263;28;20027;-68
2022/06/29 02:15:09;;;;;;;5.68;2.17;;;;;;;17.28;100.00;98284.56;5065895;28;20074;-68
2022/06/29 02:17:35;;;;;;;6.57;2.13;;;;;;;17.27;100.00;98275.72;5065782;28;20347;-68
2022/06/29 02:20:00;;;;;;;5.35;2.28;;;;;;;17.25;100.00;98274.91;5065780;28;20127;-68
2022/06/29 02:22:26;;;;;;;3.25;2.10;;;;;;;17.24;100.00;98275.88;5065617;28;20247;-68
2022/06/29 02:24:51;;;;;;;6.65;2.13;;;;;;;17.22;100.00;98280.38;5065339;28;20107;-68
2022/06/29 02:27:16;;;;;;;3.38;2.05;;;;;;;17.23;100.00;98275.94;5065556;28;20025;-68
2022/06/29 02:29:42;;;;;;;2.85;2.17;;;;;;;17.28;100.00;98272.09;5065617;28;20216;-68
2022/06/29 02:34:52;;;;;;;3.65;2.20;;;;;;;17.30;100.00;98265.84;5065336;28;20092;-68
2022/06/29 02:37:17;;;;;;;5.38;2.28;;;;;;;17.31;100.00;98262.25;5056681;28;20029;-68
2022/06/29 02:39:43;;;;;;;6.03;2.15;;;;;;;17.30;100.00;98260.53;5053910;28;20017;-68
2022/06/29 02:42:10;;;;;;;4.63;2.55;;;;;;;17.28;100.00;98264.13;5052771;28;20029;-68
2022/06/29 02:44:36;;;;;;;4.60;1.90;;;;;;;17.22;100.00;98258.28;5045545;28;20025;-68
2022/06/29 02:47:02;;;;;;;6.50;2.60;;;;;;;17.16;100.00;98258.59;5045324;28;20029;-68
2022/06/29 02:49:27;;;;;;;3.33;2.00;;;;;;;17.08;100.00;98256.31;5045247;28;20032;-68
2022/06/29 02:51:53;;;;;;;3.95;1.95;;;;;;;17.05;100.00;98255.59;5052286;28;20016;-68
2022/06/29 02:54:18;;;;;;;3.65;2.67;;;;;;;17.02;100.00;98261.94;5064227;28;20312;-68
2022/06/29 02:56:43;;;;;;;4.18;2.28;;;;;;;17.06;100.00;98263.50;5051956;28;20059;-68
2022/06/29 02:59:09;;;;;;;4.63;2.00;;;;;;;17.07;100.00;98267.03;5052223;28;20029;-68
2022/06/29 03:01:35;;;;;;;9.52;2.40;;;;;;;17.03;100.00;98266.31;5064142;28;20324;-68
2022/06/29 03:04:00;;;;;;;4.10;2.30;;;;;;;17.05;100.00;98261.78;5063291;28;20031;-68
2022/06/29 03:06:26;;;;;;;4.40;2.53;;;;;;;16.99;100.00;98256.78;5064330;28;20043;-68
2022/06/29 03:08:51;;;;;;;5.47;2.10;;;;;;;16.96;100.00;98256.94;5053898;28;20032;-68
2022/06/29 03:11:17;;;;;;;7.85;2.60;;;;;;;16.97;100.00;98264.00;5057984;28;20024;-68
2022/06/29 03:13:42;;;;;;;11.90;2.90;;;;;;;16.95;100.00;98260.53;5063974;28;20335;-68
2022/06/29 03:16:08;;;;;;;5.20;2.00;;;;;;;16.95;100.00;98265.84;5064181;28;20400;-68
2022/06/29 03:18:33;;;;;;;7.60;2.20;;;;;;;16.96;100.00;98266.72;5058449;28;20025;-68
2022/06/29 03:20:58;;;;;;;6.05;2.35;;;;;;;16.98;100.00;98265.69;5044539;28;20092;-68
2022/06/29 03:23:24;;;;;;;3.70;2.45;;;;;;;16.94;100.00;98268.59;5063930;28;20036;-68
2022/06/29 03:25:49;;;;;;;5.00;2.10;;;;;;;16.89;100.00;98274.13;5050323;28;20375;-68
2022/06/29 03:28:15;;;;;;;3.97;2.38;;;;;;;16.91;100.00;98274.94;5056840;28;20029;-68
2022/06/29 03:30:40;;;;;;;3.90;2.03;;;;;;;16.91;100.00;98274.94;5063914;28;20017;-68
2022/06/29 03:33:05;;;;;;;5.88;2.38;;;;;;;16.99;100.00;98282.50;5063632;28;20075;-68
2022/06/29 03:35:31;;;;;;;2.78;1.90;;;;;;;16.96;100.00;98283.50;5063865;28;20020;-68
2022/06/29 03:37:56;;;;;;;7.28;2.63;;;;;;;17.00;100.00;98274.44;5063806;28;20103;-68
2022/06/29 03:40:22;;;;;;;3.53;2.60;;;;;;;17.05;100.00;98268.91;5062367;28;20304;-68
2022/06/29 03:42:47;;;;;;;3.47;2.00;;;;;;;17.07;100.00;98270.56;5063725;28;20048;-68
2022/06/29 03:45:12;;;;;;;3.60;2.45;;;;;;;17.08;100.00;98277.59;5063253;28;20229;-68
2022/06/29 03:47:39;;;;;;;5.18;2.80;;;;;;;17.09;100.00;98268.66;5052415;28;20021;-68
2022/06/29 03:50:06;;;;;;;3.42;2.15;;;;;;;17.12;100.00;98273.81;5045644;28;20021;-68
2022/06/29 03:52:31;;;;;;;2.90;2.17;;;;;;;17.14;100.00;98271.09;5060812;28;20044;-68
2022/06/29 03:54:57;;;;;;;6.45;2.58;;;;;;;17.18;100.00;98267.31;5044104;28;20044;-68
2022/06/29 03:57:22;;;;;;;5.82;2.17;;;;;;;17.20;100.00;98271.66;5045287;28;20021;-68
2022/06/29 03:59:48;;;;;;;5.68;2.03;;;;;;;17.22;100.00;98280.38;5044098;28;20100;-68
2022/06/29 04:02:13;;;;;;;2.75;2.08;;;;;;;17.18;100.00;98284.16;5043974;28;20247;-68
2022/06/29 04:04:38;;;;;;;5.68;2.47;;;;;;;17.20;100.00;98284.94;5044066;28;20032;-68
2022/06/29 04:07:04;;;;;;;10.93;2.38;;;;;;;17.22;100.00;98279.56;5045273;28;20051;-68
2022/06/29 04:09:29;;;;;;;5.78;2.45;;;;;;;17.23;100.00;98282.13;5063404;28;20024;-68
2022/06/29 04:11:55;;;;;;;5.07;2.28;;;;;;;17.27;100.00;98281.97;5063478;28;20021;-68
2022/06/29 04:14:28;;;;;;;3.35;2.40;;;;;;;17.27;100.00;98278.38;5053230;28;20029;-68
2022/06/29 04:16:56;;;;;;;4.00;2.38;;;;;;;17.27;100.00;98281.97;5063063;28;20025;-68
2022/06/29 04:19:21;;;;;;;5.15;2.42;;;;;;;17.30;100.00;98279.16;5063452;28;20013;-68
2022/06/29 04:21:47;;;;;;;7.95;2.30;;;;;;;17.30;100.00;98281.81;5055800;28;20032;-68
2022/06/29 04:24:13;;;;;;;5.70;2.10;;;;;;;17.27;100.00;98278.38;5043703;28;20355;-68
2022/06/29 04:26:38;;;;;;;6.45;2.15;;;;;;;17.32;100.00;98274.59;5060995;28;20067;-68
2022/06/29 04:29:04;;;;;;;12.52;2.60;;;;;;;17.37;100.00;98275.22;5061506;28;20025;-68
2022/06/29 04:31:29;;;;;;;10.85;2.72;;;;;;;17.42;100.00;98278.50;5062758;28;20023;-68
2022/06/29 04:33:54;;;;;;;2.92;2.15;;;;;;;17.49;100.00;98282.63;5063028;28;20328;-68
2022/06/29 04:36:20;;;;;;;6.13;2.30;;;;;;;17.53;100.00;98273.53;5058904;28;20017;-70
2022/06/29 04:38:45;;;;;;;3.63;2.10;;;;;;;17.60;100.00;98274.91;5047024;28;20296;-71
2022/06/29 04:41:11;;;;;;;3.08;1.90;;;;;;;17.71;99.64;98272.53;5043548;28;20371;-71
2022/06/29 04:43:37;;;;;;;4.88;2.13;;;;;;;17.72;98.03;98276.94;5055070;28;20029;-71
2022/06/29 04:46:21;;;;;;;3.70;2.58;;;;;;;17.89;97.74;98284.88;5063596;28;20037;-71
2022/06/29 04:48:48;;;;;;;4.65;2.20;;;;;;;18.09;95.51;98279.31;5063508;28;20090;-70
2022/06/29 04:51:15;;;;;;;3.97;2.05;;;;;;;18.16;95.12;98280.72;5063727;28;20085;-70
2022/06/29 04:53:41;;;;;;;3.95;2.10;;;;;;;18.27;94.49;98272.97;5063479;28;20197;-70
2022/06/29 04:56:07;;;;;;;2.20;1.70;;;;;;;18.37;94.30;98268.88;5064411;28;20021;-70
2022/06/29 04:58:32;;;;;;;4.80;2.08;;;;;;;18.38;92.42;98271.44;5067369;28;20032;-70
2022/06/29 05:00:57;;;;;;;3.17;1.98;;;;;;;18.41;91.64;98270.41;5067236;28;20035;-70
2022/06/29 05:03:23;;;;;;;3.03;1.70;;;;;;;18.47;92.37;98273.59;5067258;28;20028;-70
2022/06/29 05:05:48;;;;;;;6.60;2.15;;;;;;;18.47;92.03;98270.06;5067186;28;20212;-70
2022/06/29 05:08:14;;;;;;;5.43;1.95;;;;;;;18.38;92.65;98270.63;5067433;28;20185;-70
2022/06/29 05:10:40;;;;;;;6.80;2.10;;;;;;;18.48;92.62;98266.47;5067135;28;20063;-70
2022/06/29 05:13:08;;;;;;;2.97;2.20;;;;;;;18.62;91.92;98269.22;5067097;28;20048;-70
2022/06/29 05:15:34;;;;;;;3.05;1.83;;;;;;;18.71;91.62;98274.03;5067023;28;20025;-70
2022/06/29 05:17:59;;;;;;;2.20;1.60;;;;;;;18.87;89.21;98259.72;5067014;28;20308;-70
2022/06/29 05:20:24;;;;;;;3.30;1.90;;;;;;;18.96;89.57;98263.66;5066934;28;20025;-70
2022/06/29 05:22:50;;;;;;;2.20;1.92;;;;;;;19.16;88.49;98261.53;5066905;28;20028;-70
2022/06/29 05:25:15;;;;;;;3.40;2.28;;;;;;;19.31;87.91;98261.59;5066707;28;20271;-70
2022/06/29 05:27:41;;;;;;;6.18;1.98;;;;;;;19.29;86.38;98261.69;5066745;28;20095;-70
2022/06/29 05:30:07;;;;;;;6.45;1.85;;;;;;;19.47;87.18;98265.91;5066759;28;20020;-70
2022/06/29 05:32:32;;;;;;;4.30;2.10;;;;;;;19.55;85.38;98268.97;5066664;28;20092;-70
2022/06/29 05:34:57;;;;;;;2.58;1.67;;;;;;;19.81;85.02;98267.38;5066696;28;20031;-70
2022/06/29 05:37:23;;;;;;;2.88;1.63;;;;;;;20.25;81.15;98266.31;5066866;28;20025;-70
2022/06/29 05:39:48;;;;;;;2.90;1.80;;;;;;;21.44;78.01;98261.00;5066538;28;20198;-70
2022/06/29 05:42:14;;;;;;;5.20;1.80;;;;;;;22.00;76.68;98260.63;5066450;28;20025;-70
2022/06/29 05:44:40;;;;;;;4.38;1.67;;;;;;;21.81;74.60;98264.69;5066393;28;20320;-70
2022/06/29 05:47:07;;;;;;;2.90;1.98;;;;;;;21.97;75.68;98266.19;5066422;28;20025;-70
2022/06/29 05:49:33;;;;;;;4.22;1.75;;;;;;;22.66;67.82;98260.28;5066393;28;20040;-70
2022/06/29 05:51:58;;;;;;;3.92;1.80;;;;;;;22.76;70.08;98261.31;5066359;28;20016;-70
2022/06/29 05:54:24;;;;;;;6.03;1.95;;;;;;;23.26;63.81;98253.03;5066394;28;20247;-70
2022/06/29 05:56:49;;;;;;;3.03;1.30;;;;;;;23.88;64.66;98262.44;5066220;28;20088;-70
2022/06/29 05:59:15;;;;;;;1.83;1.40;;;;;;;24.45;57.12;98259.63;5066202;28;20252;-70
2022/06/29 06:01:40;;;;;;;2.65;1.45;;;;;;;26.32;56.47;98266.06;5066325;28;20031;-70
2022/06/29 06:04:06;;;;;;;2.75;1.45;;;;;;;27.13;54.01;98261.28;5066148;28;20025;-71
2022/06/29 06:06:32;;;;;;;2.85;1.48;;;;;;;27.80;50.71;98270.25;5066283;28;20029;-71
2022/06/29 06:08:57;;;;;;;2.67;1.40;;;;;;;28.17;49.90;98268.47;5065986;28;20328;-71
2022/06/29 06:11:22;;;;;;;2.13;1.45;;;;;;;27.54;49.22;98260.16;5065945;28;20056;-71
2022/06/29 06:13:48;;;;;;;4.28;1.80;;;;;;;28.05;49.53;98269.66;5065927;28;20048;-71
2022/06/29 06:16:13;;;;;;;1.50;1.05;;;;;;;28.67;48.90;98271.72;5065932;28;20024;-71
2022/06/29 06:18:39;;;;;;;2.35;1.20;;;;;;;27.86;49.58;98258.88;5065863;28;20027;-71
2022/06/29 06:21:04;;;;;;;7.07;1.85;;;;;;;29.43;46.27;98265.78;5065668;28;20071;-71
2022/06/29 06:23:30;;;;;;;3.50;1.40;;;;;;;29.65;47.37;98265.34;5065588;28;20025;-71
2022/06/29 06:25:55;;;;;;;3.35;1.10;;;;;;;30.57;46.06;98272.75;5065557;28;20123;-71
2022/06/29 06:28:20;;;;;;;3.03;1.52;;;;;;;31.24;44.42;98274.50;5065564;28;20031;-71
2022/06/29 06:30:46;;;;;;;4.55;1.50;;;;;;;31.58;42.92;98272.56;5065604;28;20035;-71
2022/06/29 06:33:11;;;;;;;3.35;1.55;;;;;;;31.87;42.83;98267.47;5065589;28;20021;-71
2022/06/29 06:35:36;;;;;;;2.35;1.17;;;;;;;31.37;40.02;98263.16;5065556;28;20025;-72
2022/06/29 06:38:03;;;;;;;3.65;1.52;;;;;;;30.77;38.98;98255.19;5065477;28;20339;-72
2022/06/29 06:43:12;;;;;;;2.88;1.23;;;;;;;28.74;45.52;98260.13;5065343;28;20032;-72
2022/06/29 06:45:38;;;;;;;3.10;1.30;;;;;;;28.62;45.69;98274.88;5065540;28;20216;-72
2022/06/29 06:48:03;;;;;;;3.92;1.40;;;;;;;28.37;46.82;98280.94;5065266;28;20025;-72
2022/06/29 06:50:29;;;;;;;3.70;1.60;;;;;;;27.22;50.33;98268.56;5065189;28;20025;-72
2022/06/29 06:52:54;;;;;;;4.03;1.35;;;;;;;26.32;50.96;98263.34;5065296;28;20091;-72
2022/06/29 06:55:19;;;;;;;2.58;1.50;;;;;;;26.28;51.17;98270.00;5065109;28;20028;-72
2022/06/29 06:57:45;;;;;;;2.95;1.25;;;;;;;25.86;52.91;98271.03;5065121;28;20096;-72
2022/06/29 07:00:11;;;;;;;3.08;1.25;;;;;;;25.74;55.38;98270.25;5065088;28;20047;-72
2022/06/29 07:02:37;;;;;;;2.35;1.70;;;;;;;25.63;55.89;98269.47;5065181;28;20029;-72
2022/06/29 07:05:03;;;;;;;1.45;1.30;;;;;;;25.44;55.61;98261.22;5065012;28;20025;-72
2022/06/29 07:07:28;;;;;;;3.95;1.73;;;;;;;25.47;57.00;98271.75;5064853;28;20017;-72
2022/06/29 07:09:54;;;;;;;1.58;1.20;;;;;;;25.82;56.81;98266.88;5064830;28;20036;-72
2022/06/29 07:12:19;;;;;;;2.97;1.55;;;;;;;25.87;55.03;98259.22;5065076;28;20244;-72
2022/06/29 07:14:44;;;;;;;3.55;1.42;;;;;;;26.22;54.16;98263.28;5064784;28;20021;-72
2022/06/29 07:17:10;;;;;;;2.42;1.40;;;;;;;26.42;54.60;98267.78;5064763;28;20293;-71
2022/06/29 07:19:35;;;;;;;3.30;1.65;;;;;;;26.48;55.71;98271.78;5064256;28;20016;-71
2022/06/29 07:22:01;;;;;;;1.67;1.30;;;;;;;26.67;54.03;98261.09;5064605;28;20020;-71
2022/06/29 07:24:26;;;;;;;3.05;1.48;;;;;;;27.15;54.51;98259.31;5064426;28;20039;-71
2022/06/29 07:26:52;;;;;;;2.25;1.30;;;;;;;27.25;54.38;98257.50;5064478;28;20092;-71
2022/06/29 07:29:17;;;;;;;2.75;1.35;;;;;;;26.88;54.44;98248.31;5064550;28;20215;-71
2022/06/29 07:31:42;;;;;;;2.78;1.10;;;;;;;27.02;54.50;98256.03;5064477;28;20088;-71
2022/06/29 07:34:08;;;;;;;3.33;1.70;;;;;;;26.91;55.37;98262.41;5064454;28;20032;-71
2022/06/29 07:36:33;;;;;;;2.08;1.40;;;;;;;27.00;55.37;98252.59;5064412;28;20021;-71
2022/06/29 07:38:58;;;;;;;3.15;1.33;;;;;;;27.00;55.56;98252.59;5064356;28;20031;-71
2022/06/29 07:41:24;;;;;;;3.65;1.42;;;;;;;27.01;54.33;98257.00;5064303;28;20021;-71
2022/06/29 07:43:50;;;;;;;3.50;1.50;;;;;;;26.57;55.65;98255.59;5064241;28;20029;-71
2022/06/29 07:46:16;;;;;;;3.05;1.50;;;;;;;26.16;56.74;98254.91;5064257;28;20094;-71
2022/06/29 07:48:41;;;;;;;3.42;1.30;;;;;;;25.81;58.42;98254.41;5064177;28;20029;-71
2022/06/29 07:51:07;;;;;;;9.00;1.50;;;;;;;25.38;59.94;98256.38;5064209;28;20024;-71
2022/06/29 07:53:32;;;;;;;2.45;1.25;;;;;;;25.26;61.15;98259.09;5064156;28;20029;-71
2022/06/29 07:55:58;;;;;;;3.88;1.58;;;;;;;25.36;62.19;98263.72;5064144;28;20260;-71
2022/06/29 07:58:23;;;;;;;2.38;1.45;;;;;;;25.17;62.26;98265.25;5064313;28;20055;-71
2022/06/29 08:00:49;;;;;;;1.88;1.40;;;;;;;25.10;63.35;98269.44;5063931;28;20060;-71
2022/06/29 08:03:15;;;;;;;2.55;1.17;;;;;;;25.19;62.40;98252.47;5064025;28;20025;-71
2022/06/29 08:05:41;;;;;;;4.00;1.70;;;;;;;25.16;61.16;98250.06;5063932;28;20025;-71
2022/06/29 08:08:07;;;;;;;2.92;1.65;;;;;;;24.65;61.77;98249.00;5063996;28;20025;-71
2022/06/29 08:10:33;;;;;;;2.15;1.48;;;;;;;24.39;62.48;98266.38;5063926;28;20024;-71
2022/06/29 08:12:59;;;;;;;3.80;1.83;;;;;;;24.39;63.44;98266.38;5063854;28;20027;-71
2022/06/29 08:15:25;;;;;;;1.55;1.20;;;;;;;24.56;62.99;98263.19;5064144;28;20024;-71
2022/06/29 08:17:52;;;;;;;3.33;1.88;;;;;;;24.57;62.97;98258.66;5063804;28;20033;-71
2022/06/29 08:20:17;;;;;;;4.20;1.38;;;;;;;24.79;62.40;98254.13;5063804;28;20032;-71
2022/06/29 08:22:43;;;;;;;2.75;1.50;;;;;;;24.95;60.91;98251.88;5063715;28;20016;-71
2022/06/29 08:25:08;;;;;;;3.08;1.55;;;;;;;25.01;62.48;98259.44;5063613;28;20075;-71
2022/06/29 08:27:34;;;;;;;4.07;1.77;;;;;;;25.00;61.68;98256.88;5063941;28;20039;-71
2022/06/29 08:30:00;;;;;;;3.08;1.60;;;;;;;25.08;61.46;98257.94;5063978;28;20044;-71
2022/06/29 08:32:26;;;;;;;4.57;1.67;;;;;;;25.04;60.83;98259.19;5066932;28;20017;-71
2022/06/29 08:34:52;;;;;;;5.28;2.05;;;;;;;25.09;61.95;98266.88;5067794;28;20029;-71
2022/06/29 08:37:18;;;;;;;3.40;1.77;;;;;;;25.12;62.30;98267.47;5067743;28;20296;-71
2022/06/29 08:39:44;;;;;;;3.55;1.73;;;;;;;25.20;64.07;98275.78;5067702;28;20029;-71
2022/06/29 08:42:10;;;;;;;3.08;1.73;;;;;;;25.09;62.63;98267.72;5067606;28;20092;-71
2022/06/29 08:44:37;;;;;;;3.63;1.60;;;;;;;25.27;62.74;98268.88;5067625;28;20028;-71
2022/06/29 08:47:04;;;;;;;6.30;2.00;;;;;;;25.42;61.17;98266.75;5067595;28;20346;-71
2022/06/29 08:49:31;;;;;;;4.20;2.03;;;;;;;25.49;61.90;98264.38;5067565;28;20224;-71
2022/06/29 08:51:57;;;;;;;2.50;1.67;;;;;;;25.43;62.44;98259.53;5067481;28;20024;-71
2022/06/29 08:54:28;;;;;;;8.20;1.80;;;;;;;25.55;62.36;98269.25;5067436;28;20028;-71
2022/06/29 08:56:56;;;;;;;4.57;1.87;;;;;;;25.48;61.01;98259.97;5067442;28;20013;-71
2022/06/29 08:59:23;;;;;;;2.20;1.73;;;;;;;25.56;62.39;98255.63;5067340;28;20016;-71
2022/06/29 09:01:52;;;;;;;5.38;2.17;;;;;;;25.58;60.77;98258.19;5067233;28;20024;-71
2022/06/29 09:04:18;;;;;;;2.15;1.77;;;;;;;25.93;59.25;98253.31;5067205;28;20021;-71
2022/06/29 09:06:47;;;;;;;2.92;1.98;;;;;;;26.33;57.47;98263.22;5067221;28;20025;-71
2022/06/29 09:09:13;;;;;;;1.77;1.50;;;;;;;26.23;58.98;98274.94;5067154;28;20032;-71
2022/06/29 09:11:42;;;;;;;2.67;1.67;;;;;;;26.44;57.05;98270.34;5067180;28;20017;-71
2022/06/29 09:14:24;;;;;;;4.00;2.47;;;;;;;26.27;56.87;98260.19;5067039;28;20027;-71
2022/06/29 09:17:04;;;;;;;4.13;1.92;;;;;;;26.68;56.23;98260.94;5067022;28;20024;-71
2022/06/29 09:19:53;;;;;;;3.10;1.80;;;;;;;27.05;57.94;98255.75;5066951;28;20316;-71
2022/06/29 09:22:18;;;;;;;2.28;1.75;;;;;;;27.19;55.73;98263.44;5066827;28;20324;-71
2022/06/29 09:24:44;;;;;;;8.20;2.13;;;;;;;27.21;56.47;98266.84;5066178;28;20059;-71
2022/06/29 09:27:11;;;;;;;5.53;1.77;;;;;;;26.99;56.43;98261.72;5065573;28;20029;-71
2022/06/29 09:29:41;;;;;;;6.97;2.67;;;;;;;27.14;55.31;98260.28;5065587;28;20025;-71
2022/06/29 09:32:09;;;;;;;3.08;1.98;;;;;;;27.28;54.90;98265.31;5065559;28;20255;-71
2022/06/29 09:34:45;;;;;;;1.90;1.50;;;;;;;27.36;54.28;98265.44;5065415;28;20016;-71
2022/06/29 09:37:16;;;;;;;2.65;1.60;;;;;;;27.25;55.06;98268.31;5065459;28;20299;-71
2022/06/29 09:39:45;;;;;;;4.80;2.17;;;;;;;27.31;52.29;98262.34;5065452;28;20031;-71
2022/06/29 09:42:21;;;;;;;4.30;2.13;;;;;;;27.19;52.24;98258.03;5064894;28;20016;-71
2022/06/29 09:44:48;;;;;;;6.20;1.80;;;;;;;27.16;53.08;98269.13;5065317;28;20021;-71
2022/06/29 09:47:16;;;;;;;3.80;1.77;;;;;;;27.02;54.77;98266.84;5065283;28;20131;-71
2022/06/29 09:49:43;;;;;;;3.97;1.88;;;;;;;27.17;53.33;98268.97;5065486;28;20028;-71
2022/06/29 09:52:09;;;;;;;3.42;1.83;;;;;;;27.27;51.73;98266.28;5065232;28;20067;-71
2022/06/29 09:54:40;;;;;;;2.47;1.77;;;;;;;27.85;53.29;98278.81;5065226;28;20084;-71
2022/06/29 09:57:07;;;;;;;2.83;1.70;;;;;;;27.96;51.67;98273.22;5065164;28;20029;-71
2022/06/29 10:02:34;;;;;;;3.53;2.88;;;;;;;27.39;52.07;98262.47;5044208;28;20041;-71
2022/06/29 10:05:16;;;;;;;7.25;3.60;;;;;;;27.70;52.71;98266.72;5065124;28;20028;-71
2022/06/29 10:07:43;;;;;;;2.80;1.80;;;;;;;28.11;51.89;98263.66;5064991;28;20024;-71
2022/06/29 10:10:11;;;;;;;3.13;1.73;;;;;;;27.57;51.91;98258.03;5065003;28;20094;-71
2022/06/29 10:15:57;;;;;;;6.88;1.98;;;;;;;27.33;51.26;98260.31;5075962;28;20071;-71
2022/06/29 10:18:36;;;;;;;4.03;1.75;;;;;;;26.93;52.03;98256.88;5070443;28;20208;-71
2022/06/29 10:21:10;;;;;;;2.53;1.80;;;;;;;27.26;52.98;98270.00;5084046;28;20021;-71
2022/06/29 10:26:39;;;;;;;3.33;1.98;;;;;;;27.83;49.96;98264.53;5175331;27;19990;-71
2022/06/29 10:29:05;;;;;;;4.35;1.60;;;;;;;28.35;52.36;98274.81;5141665;28;20290;-72
2022/06/29 10:31:53;;;;;;;3.08;1.92;;;;;;;28.66;51.68;98278.13;5136692;28;20019;-72
2022/06/29 10:37:23;;;;;;;3.50;2.10;;;;;;;28.80;50.48;98262.22;5133908;28;20022;-72
2022/06/29 10:39:49;;;;;;;5.10;1.88;;;;;;;28.39;50.79;98257.28;5139487;28;20023;-71
2022/06/29 10:45:09;;;;;;;2.30;1.70;;;;;;;28.75;50.24;98242.84;5142101;28;20033;-71
2022/06/29 10:47:35;;;;;;;3.22;1.90;;;;;;;29.89;47.82;98251.94;5125052;28;20030;-72
2022/06/29 10:50:20;;;;;;;3.05;1.73;;;;;;;30.50;44.65;98240.97;5142044;28;20322;-72
2022/06/29 10:52:46;;;;;;;1.98;1.65;;;;;;;30.66;47.25;98251.91;5134920;28;20267;-72
2022/06/29 10:55:12;;;;;;;1.55;1.30;;;;;;;30.98;43.95;98243.88;5138876;28;20019;-72
2022/06/29 10:57:40;;;;;;;2.85;1.90;;;;;;;31.42;43.54;98245.34;5133153;28;20096;-72
2022/06/29 11:00:09;;;;;;;4.55;1.67;;;;;;;31.90;42.38;98239.91;5140933;28;20026;-72
2022/06/29 11:02:38;;;;;;;3.42;1.50;;;;;;;31.04;41.89;98245.94;5141887;28;20086;-73
2022/06/29 11:05:04;;;;;;;2.20;1.63;;;;;;;30.81;44.11;98248.41;5141769;28;20031;-73
2022/06/29 11:12:58;;;;;;;3.08;1.80;;;;;;;29.69;47.38;98246.88;5141717;28;20049;-72
2022/06/29 11:15:42;;;;;;;4.45;2.08;;;;;;;29.43;48.97;98243.22;5141596;28;20037;-72
2022/06/29 11:18:10;;;;;;;3.25;1.98;;;;;;;30.21;45.67;98240.47;5141585;28;20049;-71
2022/06/29 11:20:36;;;;;;;2.28;1.75;;;;;;;30.48;46.87;98240.25;5141571;28;20024;-71
2022/06/29 11:23:02;;;;;;;3.38;1.90;;;;;;;30.81;44.52;98237.53;5141400;28;20039;-71
2022/06/29 11:25:35;;;;;;;2.70;1.60;;;;;;;30.84;45.38;98229.06;5141223;28;20039;-72
2022/06/29 11:28:00;;;;;;;3.22;2.03;;;;;;;30.51;45.76;98231.78;5141356;28;20026;-71
2022/06/29 11:30:26;;;;;;;2.88;1.90;;;;;;;30.40;44.98;98235.63;5141302;28;20019;-71
2022/06/29 11:32:51;;;;;;;3.92;1.67;;;;;;;29.95;46.70;98228.72;5141254;28;20086;-72
2022/06/29 11:35:22;;;;;;;4.32;2.00;;;;;;;29.38;47.07;98223.88;5141224;28;20025;-72
2022/06/29 11:38:01;;;;;;;3.92;2.28;;;;;;;29.02;48.78;98217.56;5127118;28;20315;-72
2022/06/29 11:40:35;;;;;;;3.78;2.20;;;;;;;28.37;51.38;98215.94;5127438;28;20096;-73
2022/06/29 11:43:14;;;;;;;4.18;2.00;;;;;;;28.71;48.00;98203.53;5124988;28;20154;-72
2022/06/29 11:45:46;;;;;;;3.45;2.05;;;;;;;28.69;48.42;98200.13;5118087;28;20039;-72
2022/06/29 11:48:15;;;;;;;3.60;1.60;;;;;;;28.69;48.56;98202.81;5126553;28;20024;-72
2022/06/29 11:51:00;;;;;;;6.20;1.90;;;;;;;28.71;50.62;98200.84;5126754;28;20042;-71
2022/06/29 11:53:45;;;;;;;3.15;1.92;;;;;;;28.65;47.09;98187.91;5111731;28;20239;-71
2022/06/29 11:56:13;;;;;;;6.70;2.10;;;;;;;28.64;48.97;98191.63;5127149;28;20308;-72